Time;durP1;ratioP1;P1;durP2;ratioP2;P2;SDS_P1;SDS_P2;PMS_P1;PMS_P2;Temp;Humidity;BMP_temperature;BMP_pressure;BME280_temperature;BME280_humidity;BME280_pressure;Samples;Min_cycle;Max_cycle;Signal;HPM_P1;HPM_P2
2022/01/10 00:01:59;;;;;;;3.13;1.60;;;9.80;92.80;;;;;;5041270;28;20036;-77
2022/01/10 00:04:25;;;;;;;3.25;1.60;;;9.90;92.80;;;;;;5041239;28;20543;-77
2022/01/10 00:06:50;;;;;;;2.65;1.50;;;9.90;92.90;;;;;;5039124;28;20035;-78
2022/01/10 00:09:16;;;;;;;2.58;1.60;;;10.00;92.60;;;;;;5038743;28;20498;-78
2022/01/10 00:11:42;;;;;;;2.80;1.50;;;9.90;92.70;;;;;;5042249;28;20672;-78
2022/01/10 00:14:07;;;;;;;3.45;1.60;;;9.90;93.10;;;;;;5042957;28;20056;-78
2022/01/10 00:16:33;;;;;;;3.03;1.58;;;9.90;93.30;;;;;;5041198;28;20841;-77
2022/01/10 00:18:59;;;;;;;3.70;1.48;;;9.90;93.30;;;;;;5041467;28;20041;-76
2022/01/10 00:21:24;;;;;;;4.40;1.98;;;9.80;93.10;;;;;;5041247;28;20094;-78
2022/01/10 00:23:50;;;;;;;4.60;2.28;;;9.80;93.10;;;;;;5041558;28;20032;-77
2022/01/10 00:26:16;;;;;;;4.38;2.33;;;9.80;93.10;;;;;;5042068;28;20547;-77
2022/01/10 00:28:41;;;;;;;4.97;2.40;;;9.80;93.10;;;;;;5047574;28;20044;-77
2022/01/10 00:31:07;;;;;;;5.18;2.30;;;9.70;93.20;;;;;;5041458;28;20032;-77
2022/01/10 00:33:33;;;;;;;5.20;2.80;;;9.70;93.40;;;;;;5043556;28;20111;-78
2022/01/10 00:35:59;;;;;;;6.07;3.33;;;9.70;93.70;;;;;;5044938;28;20029;-77
2022/01/10 00:38:24;;;;;;;6.93;4.00;;;9.80;93.70;;;;;;5049677;28;20075;-77
2022/01/10 00:40:51;;;;;;;6.55;4.25;;;9.70;94.10;;;;;;5050789;28;20028;-77
2022/01/10 00:43:28;;;;;;;6.38;3.78;;;9.70;94.10;;;;;;5049225;28;20040;-77
2022/01/10 00:45:54;;;;;;;6.05;3.03;;;9.70;94.10;;;;;;5048321;28;20090;-77
2022/01/10 00:48:19;;;;;;;6.25;3.00;;;9.70;94.10;;;;;;5048347;28;20466;-77
2022/01/10 00:50:45;;;;;;;5.90;3.10;;;9.70;94.10;;;;;;5048158;28;20044;-77
2022/01/10 00:53:11;;;;;;;5.28;2.83;;;9.70;94.10;;;;;;5050694;28;20032;-77
2022/01/10 00:55:37;;;;;;;5.63;3.25;;;9.70;94.10;;;;;;5048914;28;20052;-78
2022/01/10 00:58:02;;;;;;;5.57;3.05;;;9.70;94.10;;;;;;5054161;28;20025;-77
2022/01/10 01:00:29;;;;;;;5.22;2.42;;;9.60;94.50;;;;;;5050376;28;20060;-77
2022/01/10 01:02:54;;;;;;;4.22;2.33;;;9.60;94.30;;;;;;5045812;28;20526;-77
2022/01/10 01:05:22;;;;;;;5.05;2.33;;;9.70;94.30;;;;;;5052077;28;20037;-77
2022/01/10 01:07:48;;;;;;;5.55;2.38;;;9.70;94.30;;;;;;5052911;28;20514;-77
2022/01/10 01:12:56;;;;;;;4.22;2.00;;;9.70;94.10;;;;;;5053344;28;20025;-77
2022/01/10 01:15:26;;;;;;;4.38;1.85;;;9.70;94.10;;;;;;5051881;28;20076;-77
2022/01/10 01:25:57;;;;;;;4.47;1.75;;;9.80;93.90;;;;;;5052265;28;20255;-77
2022/01/10 01:28:23;;;;;;;4.30;1.70;;;9.70;94.20;;;;;;5052781;28;20432;-77
2022/01/10 01:30:49;;;;;;;3.25;1.50;;;9.70;94.40;;;;;;5052711;28;20094;-77
2022/01/10 01:33:16;;;;;;;4.00;1.70;;;9.70;94.30;;;;;;5050854;28;20024;-77
2022/01/10 01:35:42;;;;;;;5.72;1.83;;;9.70;94.30;;;;;;5051176;28;20021;-77
2022/01/10 01:38:08;;;;;;;2.95;1.52;;;9.70;94.30;;;;;;5051202;28;20779;-77
2022/01/10 01:40:44;;;;;;;4.60;1.90;;;9.70;94.00;;;;;;5051124;28;20080;-76
2022/01/10 01:43:10;;;;;;;3.53;1.70;;;9.70;94.00;;;;;;5049923;28;20032;-77
2022/01/10 01:45:42;;;;;;;3.55;1.80;;;9.60;94.50;;;;;;5050292;28;20029;-76
2022/01/10 01:48:08;;;;;;;4.32;1.70;;;9.60;94.40;;;;;;5046746;28;20115;-77
2022/01/10 01:50:35;;;;;;;4.18;1.70;;;9.70;94.20;;;;;;5050447;28;20025;-77
2022/01/10 01:53:01;;;;;;;3.47;1.85;;;9.70;94.40;;;;;;5050406;28;20563;-77
2022/01/10 01:55:27;;;;;;;3.63;1.85;;;9.60;94.80;;;;;;5051599;28;20059;-77
2022/01/10 01:57:53;;;;;;;5.40;2.42;;;9.60;94.50;;;;;;5052110;28;20032;-77
2022/01/10 02:00:22;;;;;;;6.32;3.00;;;9.60;94.40;;;;;;5050195;28;20079;-78
2022/01/10 02:02:51;;;;;;;6.25;2.40;;;9.60;94.40;;;;;;5049721;28;20507;-77
2022/01/10 02:05:18;;;;;;;4.43;2.00;;;9.60;94.70;;;;;;5050370;28;20112;-77
2022/01/10 02:07:44;;;;;;;4.60;2.05;;;9.60;94.70;;;;;;5049863;28;20041;-77
2022/01/10 02:10:10;;;;;;;5.60;2.33;;;9.60;94.40;;;;;;5053026;28;20052;-77
2022/01/10 02:12:36;;;;;;;5.78;2.08;;;9.60;94.70;;;;;;5053000;28;20108;-77
2022/01/10 02:15:02;;;;;;;4.78;2.20;;;9.60;94.50;;;;;;5049514;28;20479;-76
2022/01/10 02:17:35;;;;;;;4.70;2.20;;;9.60;94.20;;;;;;5049629;28;20155;-77
2022/01/10 02:20:04;;;;;;;4.72;2.05;;;9.60;94.40;;;;;;5049939;28;20033;-77
2022/01/10 02:22:30;;;;;;;6.03;2.10;;;9.60;94.10;;;;;;5059036;28;20040;-77
2022/01/10 02:24:55;;;;;;;5.88;2.20;;;9.60;94.00;;;;;;5052203;28;20383;-77
2022/01/10 02:27:23;;;;;;;5.00;2.58;;;9.60;93.90;;;;;;5049457;28;20411;-76
2022/01/10 02:29:49;;;;;;;5.07;2.20;;;9.60;93.60;;;;;;5049237;28;20029;-77
2022/01/10 02:32:15;;;;;;;7.47;2.65;;;9.60;93.30;;;;;;5049487;28;20040;-77
2022/01/10 02:34:41;;;;;;;6.80;2.38;;;9.50;93.20;;;;;;5049801;28;20534;-77
2022/01/10 02:37:07;;;;;;;6.53;2.70;;;9.60;93.30;;;;;;5052873;28;20033;-77
2022/01/10 02:39:33;;;;;;;8.13;2.80;;;9.50;93.20;;;;;;5049311;28;20021;-77
2022/01/10 02:41:58;;;;;;;7.93;2.80;;;9.60;92.80;;;;;;5049556;28;20411;-77
2022/01/10 02:44:24;;;;;;;9.15;2.80;;;9.50;92.80;;;;;;5049096;28;20025;-77
2022/01/10 02:46:50;;;;;;;8.05;2.67;;;9.40;92.60;;;;;;5049033;28;20120;-77
2022/01/10 02:49:27;;;;;;;9.23;3.28;;;9.30;92.50;;;;;;5051904;28;20021;-77
2022/01/10 02:51:56;;;;;;;9.13;3.25;;;9.40;92.30;;;;;;5051076;28;20387;-77
2022/01/10 02:54:23;;;;;;;9.20;3.38;;;9.30;92.50;;;;;;5049426;28;20086;-77
2022/01/10 02:56:52;;;;;;;8.50;3.50;;;9.30;92.60;;;;;;5048173;28;20021;-77
2022/01/10 02:59:19;;;;;;;11.07;3.40;;;9.40;92.70;;;;;;5050464;28;20464;-77
2022/01/10 03:01:45;;;;;;;10.88;3.00;;;9.30;92.40;;;;;;5048943;28;20083;-77
2022/01/10 03:04:11;;;;;;;10.48;3.20;;;9.20;92.50;;;;;;5050666;28;20025;-78
2022/01/10 03:06:38;;;;;;;8.40;3.88;;;9.30;92.60;;;;;;5049632;28;20157;-77
2022/01/10 03:09:06;;;;;;;11.02;3.00;;;9.20;92.70;;;;;;5048762;28;20064;-77
2022/01/10 03:11:34;;;;;;;8.95;2.88;;;9.20;93.10;;;;;;5048683;28;20471;-77
2022/01/10 03:14:00;;;;;;;9.27;3.75;;;9.30;92.80;;;;;;5048294;28;20082;-77
2022/01/10 03:16:26;;;;;;;8.50;3.50;;;9.20;92.60;;;;;;5050618;28;20090;-77
2022/01/10 03:18:52;;;;;;;9.90;3.08;;;9.30;93.00;;;;;;5050094;28;20496;-77
2022/01/10 03:21:20;;;;;;;8.98;3.15;;;9.20;93.20;;;;;;5048962;28;20064;-77
2022/01/10 03:23:47;;;;;;;11.68;3.15;;;9.20;93.20;;;;;;5049022;28;20431;-77
2022/01/10 03:26:13;;;;;;;9.02;2.92;;;9.10;93.50;;;;;;5048395;28;20052;-77
2022/01/10 03:28:38;;;;;;;9.45;3.42;;;9.10;93.90;;;;;;5048487;28;20072;-77
2022/01/10 03:31:04;;;;;;;10.88;4.03;;;9.00;93.90;;;;;;5050984;28;20436;-77
2022/01/10 03:33:30;;;;;;;10.15;3.53;;;9.10;93.80;;;;;;5048146;28;20047;-77
2022/01/10 03:35:56;;;;;;;7.30;2.72;;;9.10;94.10;;;;;;5050698;28;20104;-77
2022/01/10 03:38:21;;;;;;;10.02;3.38;;;9.20;94.90;;;;;;5055729;28;20021;-77
2022/01/10 03:40:47;;;;;;;9.52;3.28;;;9.20;94.90;;;;;;5048228;28;20036;-77
2022/01/10 03:43:13;;;;;;;7.18;2.83;;;9.30;95.60;;;;;;5050195;28;20533;-77
2022/01/10 03:45:39;;;;;;;9.43;3.10;;;9.20;95.80;;;;;;5049057;28;20090;-77
2022/01/10 03:48:05;;;;;;;8.18;2.90;;;9.10;95.90;;;;;;5048359;28;20060;-77
2022/01/10 03:50:31;;;;;;;9.50;3.10;;;9.10;96.50;;;;;;5048007;28;20036;-77
2022/01/10 03:52:57;;;;;;;7.93;2.70;;;9.20;96.60;;;;;;5048000;28;20025;-78
2022/01/10 03:55:22;;;;;;;10.40;3.30;;;9.10;97.00;;;;;;5050203;28;20062;-77
2022/01/10 03:57:48;;;;;;;10.68;3.17;;;9.20;97.20;;;;;;5049028;28;20108;-77
2022/01/10 04:00:16;;;;;;;10.80;2.92;;;9.10;96.80;;;;;;5047735;28;20061;-77
2022/01/10 04:02:47;;;;;;;9.68;3.20;;;9.10;97.50;;;;;;5047907;28;20029;-77
2022/01/10 04:05:13;;;;;;;8.20;2.97;;;9.20;97.60;;;;;;5047670;28;20053;-78
2022/01/10 04:07:39;;;;;;;9.45;2.78;;;9.10;97.20;;;;;;5048597;28;20075;-77
2022/01/10 04:10:05;;;;;;;8.63;3.08;;;9.20;97.30;;;;;;5049172;28;20512;-77
2022/01/10 04:12:31;;;;;;;8.48;2.95;;;9.00;97.30;;;;;;5047442;28;20068;-77
2022/01/10 04:14:57;;;;;;;9.55;2.78;;;9.10;97.50;;;;;;5052526;28;20044;-77
2022/01/10 04:17:23;;;;;;;12.20;3.17;;;9.10;97.50;;;;;;5047715;28;20128;-77
2022/01/10 04:19:48;;;;;;;13.27;3.55;;;9.10;97.90;;;;;;5047870;28;20085;-77
2022/01/10 04:22:14;;;;;;;8.02;3.38;;;9.10;98.20;;;;;;5050241;28;20103;-77
2022/01/10 04:24:40;;;;;;;15.65;4.25;;;9.10;98.40;;;;;;5048586;28;20021;-77
2022/01/10 04:27:05;;;;;;;8.73;3.50;;;9.10;98.90;;;;;;5047415;28;20113;-77
2022/01/10 04:29:31;;;;;;;10.20;3.17;;;9.00;99.10;;;;;;5047466;28;20061;-77
2022/01/10 04:31:57;;;;;;;9.30;3.10;;;9.00;99.50;;;;;;5047618;28;20535;-77
2022/01/10 04:34:22;;;;;;;7.55;3.10;;;9.00;99.40;;;;;;5050265;28;20381;-77
2022/01/10 04:36:48;;;;;;;9.40;3.70;;;8.90;99.80;;;;;;5048629;28;20078;-77
2022/01/10 04:39:14;;;;;;;9.60;3.40;;;8.90;99.60;;;;;;5047363;28;20476;-78
2022/01/10 04:41:40;;;;;;;8.05;3.50;;;8.90;99.70;;;;;;5047444;28;20100;-77
2022/01/10 04:44:07;;;;;;;7.88;3.10;;;8.90;99.90;;;;;;5047841;28;20021;-76
2022/01/10 04:46:33;;;;;;;8.20;2.88;;;8.90;99.80;;;;;;5048311;28;20033;-77
2022/01/10 04:48:59;;;;;;;8.95;4.22;;;9.00;99.70;;;;;;5050169;28;20071;-77
2022/01/10 04:51:27;;;;;;;14.18;5.43;;;9.00;99.60;;;;;;5049876;28;20012;-77
2022/01/10 04:53:55;;;;;;;11.18;5.65;;;8.90;99.50;;;;;;5051807;28;20507;-77
2022/01/10 04:56:21;;;;;;;9.73;4.40;;;9.00;99.80;;;;;;5046846;28;20064;-77
2022/01/10 04:58:49;;;;;;;8.52;2.60;;;9.00;99.80;;;;;;5047197;28;20056;-77
2022/01/10 05:01:17;;;;;;;8.50;2.78;;;9.00;99.60;;;;;;5049581;28;20045;-77
2022/01/10 05:03:43;;;;;;;7.75;2.97;;;9.00;99.70;;;;;;5049925;28;20494;-77
2022/01/10 05:06:08;;;;;;;5.88;2.35;;;9.00;99.90;;;;;;5047112;28;20069;-77
2022/01/10 05:08:34;;;;;;;7.07;2.67;;;9.10;99.80;;;;;;5047436;28;20110;-77
2022/01/10 05:11:00;;;;;;;7.10;2.50;;;9.10;99.90;;;;;;5047066;28;20029;-77
2022/01/10 05:13:26;;;;;;;6.80;2.38;;;9.00;99.90;;;;;;5049237;28;20087;-77
2022/01/10 05:15:52;;;;;;;11.48;3.13;;;9.10;99.90;;;;;;5048798;28;20033;-76
2022/01/10 05:18:19;;;;;;;9.68;2.30;;;9.00;99.90;;;;;;5046922;28;20026;-77
2022/01/10 05:20:46;;;;;;;9.68;2.90;;;9.00;99.90;;;;;;5050079;28;20037;-77
2022/01/10 05:23:12;;;;;;;9.65;2.65;;;9.00;99.90;;;;;;5050819;28;20188;-77
2022/01/10 05:25:40;;;;;;;7.15;2.38;;;9.00;99.90;;;;;;5043559;28;20037;-77
2022/01/10 05:28:08;;;;;;;7.93;2.30;;;9.00;99.90;;;;;;5050694;28;20033;-77
2022/01/10 05:30:33;;;;;;;6.13;2.50;;;9.00;99.90;;;;;;5051405;28;20025;-77
2022/01/10 05:32:59;;;;;;;8.30;2.50;;;9.00;99.90;;;;;;5049841;28;20468;-77
2022/01/10 05:35:25;;;;;;;6.55;1.98;;;9.00;99.90;;;;;;5050392;28;20056;-77
2022/01/10 05:37:51;;;;;;;7.07;2.10;;;8.90;99.90;;;;;;5050536;28;20014;-77
2022/01/10 05:40:19;;;;;;;7.05;2.10;;;8.90;99.90;;;;;;5052493;28;20039;-78
2022/01/10 05:42:45;;;;;;;6.07;2.35;;;8.90;99.90;;;;;;5051915;28;20322;-77
2022/01/10 05:45:11;;;;;;;9.63;2.67;;;8.90;99.90;;;;;;5050228;28;20029;-77
2022/01/10 05:47:41;;;;;;;7.25;2.20;;;8.90;99.90;;;;;;5050350;28;20095;-77
2022/01/10 05:50:08;;;;;;;4.72;1.90;;;8.90;99.90;;;;;;5050852;28;20048;-75
2022/01/10 05:52:34;;;;;;;5.43;2.10;;;8.90;99.90;;;;;;5051086;28;20029;-78
2022/01/10 05:54:59;;;;;;;5.20;2.03;;;8.90;99.90;;;;;;5052741;28;20024;-78
2022/01/10 05:57:25;;;;;;;8.98;2.20;;;8.90;99.90;;;;;;5051248;28;20079;-77
2022/01/10 05:59:51;;;;;;;6.05;1.98;;;8.90;99.90;;;;;;5051556;28;20063;-77
2022/01/10 06:02:17;;;;;;;4.38;2.10;;;8.80;99.90;;;;;;5051386;28;20112;-78
2022/01/10 06:04:43;;;;;;;6.68;2.28;;;8.90;99.90;;;;;;5052172;28;20078;-77
2022/01/10 06:07:09;;;;;;;6.30;2.30;;;8.90;99.90;;;;;;5053025;28;20048;-77
2022/01/10 06:09:34;;;;;;;6.45;2.30;;;8.90;99.90;;;;;;5051946;28;20056;-78
2022/01/10 06:12:00;;;;;;;6.93;2.22;;;8.90;99.90;;;;;;5051412;28;20108;-78
2022/01/10 06:14:26;;;;;;;4.50;1.83;;;8.90;99.90;;;;;;5050222;28;20036;-77
2022/01/10 06:16:51;;;;;;;7.95;1.95;;;8.90;99.90;;;;;;5050264;28;20021;-78
2022/01/10 06:19:17;;;;;;;6.18;2.30;;;8.80;99.90;;;;;;5052438;28;20033;-78
2022/01/10 06:21:43;;;;;;;5.82;2.00;;;8.90;99.90;;;;;;5050542;28;20032;-78
2022/01/10 06:24:08;;;;;;;5.63;1.90;;;8.80;99.90;;;;;;5049940;28;20351;-78
2022/01/10 06:26:34;;;;;;;6.55;1.90;;;8.90;99.90;;;;;;5050110;28;20132;-78
2022/01/10 06:29:00;;;;;;;5.90;1.80;;;8.90;99.90;;;;;;5049966;28;20496;-78
2022/01/10 06:31:26;;;;;;;4.72;1.67;;;8.90;99.90;;;;;;5050743;28;20033;-78
2022/01/10 06:33:51;;;;;;;5.50;1.60;;;8.90;99.90;;;;;;5050742;28;20028;-78
2022/01/10 06:36:17;;;;;;;6.70;1.92;;;9.00;99.90;;;;;;5049153;28;20033;-80
2022/01/10 06:38:43;;;;;;;7.50;1.95;;;9.00;99.90;;;;;;5049409;28;20573;-77
2022/01/10 06:41:09;;;;;;;7.70;1.85;;;9.00;99.90;;;;;;5049243;28;20391;-77
2022/01/10 06:43:37;;;;;;;6.32;1.80;;;9.00;99.90;;;;;;5051383;28;20035;-77
2022/01/10 06:46:04;;;;;;;6.38;1.90;;;8.90;99.90;;;;;;5052689;28;20025;-76
2022/01/10 06:48:29;;;;;;;6.90;2.42;;;8.90;99.90;;;;;;5051588;28;20025;-76
2022/01/10 06:50:55;;;;;;;13.25;3.92;;;8.90;99.90;;;;;;5051027;28;20108;-77
2022/01/10 06:53:21;;;;;;;12.60;4.45;;;9.00;99.90;;;;;;5050927;28;20115;-77
2022/01/10 06:55:47;;;;;;;17.17;5.40;;;8.90;99.90;;;;;;5049430;28;20025;-77
2022/01/10 06:58:13;;;;;;;12.38;4.45;;;8.90;99.90;;;;;;5051825;28;20059;-75
2022/01/10 07:00:40;;;;;;;9.38;3.17;;;8.90;99.90;;;;;;5051072;28;20128;-75
2022/01/10 07:03:06;;;;;;;6.13;2.13;;;8.90;99.90;;;;;;5050996;28;20044;-75
2022/01/10 07:05:32;;;;;;;5.00;1.70;;;8.90;99.90;;;;;;5050819;28;20036;-77
2022/01/10 07:07:58;;;;;;;5.70;1.60;;;8.90;99.90;;;;;;5050918;28;20025;-74
2022/01/10 07:10:24;;;;;;;3.45;1.65;;;8.90;99.90;;;;;;5049097;28;20119;-76
2022/01/10 07:12:50;;;;;;;3.83;1.40;;;8.90;99.90;;;;;;5049703;28;20033;-80
2022/01/10 07:15:15;;;;;;;6.40;1.80;;;8.90;99.90;;;;;;5050298;28;20037;-73
2022/01/10 07:17:41;;;;;;;5.60;1.80;;;8.90;99.90;;;;;;5050166;28;20033;-75
2022/01/10 07:20:08;;;;;;;6.95;2.10;;;8.80;99.90;;;;;;5049985;28;20025;-76
2022/01/10 07:22:33;;;;;;;6.03;1.77;;;8.80;99.90;;;;;;5050432;28;20747;-76
2022/01/10 07:24:59;;;;;;;6.13;2.22;;;8.80;99.90;;;;;;5051817;28;20028;-77
2022/01/10 07:27:25;;;;;;;2.70;1.30;;;8.80;99.90;;;;;;5049901;28;20051;-76
2022/01/10 07:29:51;;;;;;;3.58;1.30;;;8.80;99.90;;;;;;5050039;28;20017;-76
2022/01/10 07:32:18;;;;;;;4.85;1.40;;;8.80;99.90;;;;;;5050157;28;20037;-76
2022/01/10 07:34:44;;;;;;;5.57;1.67;;;8.80;99.90;;;;;;5050322;28;20025;-75
2022/01/10 07:37:09;;;;;;;5.68;1.58;;;8.80;99.90;;;;;;5050975;28;20029;-75
2022/01/10 07:39:35;;;;;;;5.63;1.90;;;8.90;99.90;;;;;;5050488;28;20031;-76
2022/01/10 07:42:01;;;;;;;4.25;1.48;;;8.90;99.90;;;;;;5050002;28;20029;-75
2022/01/10 07:44:27;;;;;;;3.65;1.50;;;8.90;99.90;;;;;;5050407;28;20029;-74
2022/01/10 07:46:55;;;;;;;4.45;1.67;;;9.00;99.90;;;;;;5049873;28;20558;-74
2022/01/10 07:49:21;;;;;;;7.68;1.55;;;9.00;99.60;;;;;;5050048;28;20021;-74
2022/01/10 07:51:47;;;;;;;3.75;1.98;;;9.00;99.60;;;;;;5051165;28;20021;-76
2022/01/10 07:54:13;;;;;;;6.90;1.88;;;8.90;99.40;;;;;;5050069;28;20025;-75
2022/01/10 07:56:39;;;;;;;3.20;1.70;;;8.90;99.40;;;;;;5049967;28;20439;-74
2022/01/10 07:59:04;;;;;;;4.88;1.80;;;8.90;99.40;;;;;;5050108;28;20032;-75
2022/01/10 08:01:30;;;;;;;8.07;4.22;;;9.00;99.40;;;;;;5049660;28;20053;-76
2022/01/10 08:03:56;;;;;;;12.27;9.07;;;8.90;99.10;;;;;;5051232;28;20514;-76
2022/01/10 08:06:22;;;;;;;13.07;10.55;;;9.00;99.40;;;;;;5049637;28;20107;-76
2022/01/10 08:08:48;;;;;;;11.15;9.98;;;9.10;99.10;;;;;;5049675;28;20033;-75
2022/01/10 08:11:15;;;;;;;11.10;10.00;;;9.20;98.80;;;;;;5049838;28;20618;-77
2022/01/10 08:13:41;;;;;;;10.75;8.40;;;9.30;98.40;;;;;;5049484;28;20496;-76
2022/01/10 08:16:08;;;;;;;11.57;9.70;;;9.40;98.20;;;;;;5050029;28;20021;-76
2022/01/10 08:18:35;;;;;;;8.60;7.00;;;9.40;98.30;;;;;;5048916;28;20090;-75
2022/01/10 08:21:01;;;;;;;6.70;4.55;;;9.40;98.10;;;;;;5049483;28;20025;-76
2022/01/10 08:23:28;;;;;;;5.40;2.53;;;9.40;98.00;;;;;;5048935;28;20029;-76
2022/01/10 08:25:53;;;;;;;5.55;1.98;;;9.50;97.80;;;;;;5049035;28;20396;-76
2022/01/10 08:28:19;;;;;;;4.20;1.63;;;9.50;97.10;;;;;;5029814;28;20033;-76
2022/01/10 08:30:45;;;;;;;6.65;2.05;;;9.60;96.60;;;;;;5050226;28;20056;-76
2022/01/10 08:33:11;;;;;;;9.18;5.00;;;9.60;96.30;;;;;;5048392;28;20032;-77
2022/01/10 08:35:36;;;;;;;10.13;6.10;;;9.70;96.00;;;;;;5048828;28;20017;-77
2022/01/10 08:38:02;;;;;;;8.07;6.65;;;9.70;95.90;;;;;;5048618;28;20028;-76
2022/01/10 08:40:28;;;;;;;7.40;6.15;;;9.70;95.90;;;;;;5049605;28;20025;-76
2022/01/10 08:42:54;;;;;;;8.32;6.18;;;9.90;95.60;;;;;;5050247;28;20036;-77
2022/01/10 08:45:20;;;;;;;8.80;4.20;;;10.00;95.40;;;;;;5048194;28;20036;-76
2022/01/10 08:47:46;;;;;;;6.03;3.45;;;10.20;94.50;;;;;;5047857;28;20033;-77
2022/01/10 08:50:13;;;;;;;7.15;2.00;;;10.30;94.20;;;;;;5048373;28;20032;-76
2022/01/10 08:52:40;;;;;;;5.40;1.70;;;10.40;93.70;;;;;;5045691;28;20033;-77
2022/01/10 08:55:08;;;;;;;3.67;1.60;;;10.50;93.10;;;;;;5051340;28;20028;-76
2022/01/10 08:57:34;;;;;;;3.40;1.60;;;10.50;92.70;;;;;;5051954;28;20044;-76
2022/01/10 09:00:01;;;;;;;3.55;1.63;;;10.70;92.20;;;;;;5051912;28;20052;-76
2022/01/10 09:02:26;;;;;;;4.10;1.55;;;10.70;91.80;;;;;;5050745;28;20035;-76
2022/01/10 09:04:53;;;;;;;5.57;1.42;;;10.60;91.90;;;;;;5051995;28;20021;-77
2022/01/10 09:07:18;;;;;;;3.60;1.58;;;10.50;91.90;;;;;;5049686;28;20044;-76
2022/01/10 09:09:44;;;;;;;3.55;1.40;;;10.50;92.10;;;;;;5049198;28;20021;-76
2022/01/10 09:12:11;;;;;;;4.13;1.30;;;10.40;92.00;;;;;;5047241;28;20057;-76
2022/01/10 09:14:37;;;;;;;5.32;1.23;;;10.40;92.30;;;;;;5046900;28;20108;-77
2022/01/10 09:17:03;;;;;;;4.47;1.38;;;10.50;91.80;;;;;;5038230;28;20013;-77
2022/01/10 09:19:29;;;;;;;5.30;1.70;;;10.50;91.60;;;;;;5055477;28;20028;-78
2022/01/10 09:21:55;;;;;;;3.70;1.60;;;10.50;91.60;;;;;;5048701;28;20047;-77
2022/01/10 09:24:21;;;;;;;4.05;1.45;;;10.70;91.60;;;;;;5046689;28;20037;-78
2022/01/10 09:26:47;;;;;;;3.08;1.63;;;10.90;91.00;;;;;;5045978;28;20132;-77
2022/01/10 09:29:13;;;;;;;4.22;1.30;;;11.00;90.70;;;;;;5047093;28;20044;-77
2022/01/10 09:31:39;;;;;;;2.95;1.30;;;10.90;91.00;;;;;;5042876;28;20041;-77
2022/01/10 09:34:04;;;;;;;3.47;1.30;;;10.90;91.30;;;;;;5049363;28;20032;-77
2022/01/10 09:36:31;;;;;;;4.38;1.40;;;10.80;90.90;;;;;;5046122;28;20049;-78
2022/01/10 09:38:58;;;;;;;5.38;1.42;;;10.80;91.30;;;;;;5047015;28;20029;-77
2022/01/10 09:41:25;;;;;;;4.75;1.30;;;10.90;91.20;;;;;;5045733;28;20074;-78
2022/01/10 09:43:56;;;;;;;5.50;1.90;;;11.00;90.80;;;;;;5046159;28;20120;-77
2022/01/10 09:46:24;;;;;;;3.65;1.52;;;11.00;90.50;;;;;;5046881;28;20125;-78
2022/01/10 09:48:50;;;;;;;5.43;2.00;;;11.10;90.30;;;;;;5047322;28;20030;-77
2022/01/10 09:51:16;;;;;;;5.60;2.15;;;11.10;90.30;;;;;;5046446;28;20032;-77
2022/01/10 09:53:42;;;;;;;4.90;2.20;;;11.10;90.00;;;;;;5045830;28;20040;-77
2022/01/10 09:56:09;;;;;;;5.10;1.85;;;11.10;90.10;;;;;;5037782;28;20017;-77
2022/01/10 09:58:34;;;;;;;7.70;2.15;;;11.00;89.90;;;;;;5047143;28;20553;-78
2022/01/10 10:01:02;;;;;;;5.63;1.90;;;11.10;90.30;;;;;;5048400;28;20045;-78
2022/01/10 10:03:27;;;;;;;4.18;1.65;;;11.10;90.00;;;;;;5045420;28;20074;-78
2022/01/10 10:05:57;;;;;;;3.97;1.52;;;11.00;90.20;;;;;;5047810;28;20029;-77
2022/01/10 10:08:25;;;;;;;6.38;1.40;;;11.10;90.10;;;;;;5049970;28;20044;-77
2022/01/10 10:10:52;;;;;;;4.28;1.30;;;11.10;89.10;;;;;;5050245;28;20028;-77
2022/01/10 10:13:18;;;;;;;4.03;1.33;;;11.20;89.30;;;;;;5051003;28;20188;-78
2022/01/10 10:15:45;;;;;;;4.55;1.60;;;11.30;88.60;;;;;;5050559;28;20036;-77
2022/01/10 10:18:12;;;;;;;3.58;1.35;;;11.40;87.90;;;;;;5046791;28;20488;-77
2022/01/10 10:20:41;;;;;;;5.22;1.50;;;11.30;88.20;;;;;;5049844;28;20076;-77
2022/01/10 10:23:11;;;;;;;4.32;1.60;;;11.30;88.50;;;;;;5049779;28;20044;-76
2022/01/10 10:25:37;;;;;;;4.70;1.55;;;11.30;88.10;;;;;;5050310;28;20149;-77
2022/01/10 10:28:03;;;;;;;4.10;1.23;;;11.40;87.90;;;;;;5051554;28;20120;-77
2022/01/10 10:30:32;;;;;;;3.95;1.45;;;11.30;86.70;;;;;;5044135;28;20252;-77
2022/01/10 10:33:15;;;;;;;4.70;1.27;;;11.30;88.00;;;;;;5044888;28;20089;-77
2022/01/10 10:35:43;;;;;;;3.00;1.42;;;11.40;87.60;;;;;;5045675;28;20573;-77
2022/01/10 10:38:09;;;;;;;4.30;1.25;;;11.40;87.30;;;;;;5045103;28;20032;-77
2022/01/10 10:40:42;;;;;;;3.53;1.08;;;11.40;87.20;;;;;;5045844;28;20052;-78
2022/01/10 10:43:09;;;;;;;4.03;1.40;;;11.50;87.00;;;;;;5045930;28;20071;-77
2022/01/10 10:45:35;;;;;;;2.70;0.98;;;11.50;86.30;;;;;;5044295;28;20029;-78
2022/01/10 10:48:07;;;;;;;2.80;1.00;;;11.50;85.80;;;;;;5045461;28;20025;-77
2022/01/10 10:50:47;;;;;;;4.78;1.15;;;11.60;84.60;;;;;;5044809;28;20075;-76
2022/01/10 10:53:14;;;;;;;3.95;1.25;;;11.80;83.40;;;;;;5045302;28;20024;-77
2022/01/10 10:55:45;;;;;;;2.22;1.00;;;11.90;82.60;;;;;;5040266;28;20032;-76
2022/01/10 10:58:12;;;;;;;2.65;1.00;;;12.10;82.40;;;;;;5046393;28;20090;-78
2022/01/10 11:00:38;;;;;;;3.80;1.17;;;12.20;81.50;;;;;;5045917;28;20044;-78
2022/01/10 11:03:05;;;;;;;3.60;1.25;;;12.30;81.50;;;;;;5044246;28;20485;-78
2022/01/10 11:05:33;;;;;;;5.07;1.40;;;12.40;80.10;;;;;;5047123;28;20393;-78
2022/01/10 11:07:59;;;;;;;8.00;1.60;;;12.70;79.40;;;;;;5048776;28;20069;-78
2022/01/10 11:10:25;;;;;;;4.00;1.50;;;12.90;78.30;;;;;;5051446;28;20017;-78
2022/01/10 11:12:56;;;;;;;3.45;1.50;;;13.00;77.90;;;;;;5049198;28;20475;-74
2022/01/10 11:15:23;;;;;;;3.40;1.17;;;13.00;77.00;;;;;;5046623;28;20026;-77
2022/01/10 11:17:51;;;;;;;6.45;1.23;;;12.90;76.20;;;;;;5048122;28;20051;-77
2022/01/10 11:20:19;;;;;;;5.32;1.30;;;12.90;76.30;;;;;;5048619;28;20032;-77
2022/01/10 11:22:47;;;;;;;6.53;1.67;;;13.30;77.20;;;;;;5042719;28;20020;-78
2022/01/10 11:25:23;;;;;;;4.32;1.02;;;13.80;76.90;;;;;;5045625;28;20033;-80
2022/01/10 11:27:50;;;;;;;3.97;1.48;;;14.00;74.40;;;;;;5046712;28;20036;-79
2022/01/10 11:30:22;;;;;;;4.03;1.40;;;14.30;74.40;;;;;;5046158;28;20404;-80
2022/01/10 11:32:56;;;;;;;6.28;1.30;;;14.70;72.80;;;;;;5045536;28;20033;-80
2022/01/10 11:35:25;;;;;;;2.22;1.08;;;15.10;71.80;;;;;;5038425;28;20025;-80
2022/01/10 11:37:50;;;;;;;3.42;1.10;;;15.30;68.30;;;;;;5048017;28;20492;-81
2022/01/10 11:40:16;;;;;;;2.47;1.10;;;15.60;68.60;;;;;;5048071;28;20138;-80
2022/01/10 11:42:51;;;;;;;3.90;1.25;;;15.90;66.10;;;;;;5045750;28;20401;-79
2022/01/10 11:45:17;;;;;;;2.58;1.08;;;16.20;65.10;;;;;;5045135;28;21312;-79
2022/01/10 11:48:01;;;;;;;4.60;1.15;;;15.90;64.70;;;;;;5047545;28;20671;-79
2022/01/10 11:50:28;;;;;;;;;;;15.80;65.10;;;;;;5046005;28;20489;-79
2022/01/10 11:52:56;;;;;;;4.03;1.40;;;15.90;65.90;;;;;;5046130;28;19913;-79
2022/01/10 11:55:43;;;;;;;3.22;1.20;;;15.80;64.60;;;;;;5040380;28;20079;-79
2022/01/10 11:58:17;;;;;;;4.10;1.58;;;15.90;64.60;;;;;;5047909;28;20033;-79
2022/01/10 12:00:43;;;;;;;6.78;1.60;;;16.30;62.00;;;;;;5044484;28;20535;-79
2022/01/10 12:03:09;;;;;;;3.88;1.20;;;16.50;59.70;;;;;;5043876;28;20037;-80
2022/01/10 12:05:35;;;;;;;5.47;1.30;;;16.30;59.60;;;;;;5044818;28;20120;-79
2022/01/10 12:08:05;;;;;;;6.65;1.20;;;16.10;59.90;;;;;;5044995;28;20163;-79
2022/01/10 12:10:31;;;;;;;5.50;1.63;;;16.20;59.20;;;;;;5045577;28;20361;-79
2022/01/10 12:13:08;;;;;;;6.72;1.92;;;15.90;59.60;;;;;;5045192;28;20115;-80
2022/01/10 12:15:35;;;;;;;4.50;1.73;;;15.60;60.60;;;;;;5044269;28;20033;-79
2022/01/10 12:18:01;;;;;;;3.35;1.40;;;15.70;59.60;;;;;;5047256;28;20559;-80
2022/01/10 12:20:27;;;;;;;4.45;1.48;;;15.60;59.50;;;;;;5046823;28;20059;-79
2022/01/10 12:22:57;;;;;;;3.95;1.50;;;15.30;59.70;;;;;;5045232;28;20518;-79
2022/01/10 12:25:24;;;;;;;7.43;1.73;;;15.50;60.00;;;;;;5046829;28;20519;-80
2022/01/10 12:27:56;;;;;;;4.53;1.50;;;16.00;59.50;;;;;;5037943;28;20029;-80
2022/01/10 12:30:25;;;;;;;6.05;1.58;;;16.00;58.70;;;;;;5038202;28;20472;-80
2022/01/10 12:32:52;;;;;;;5.03;1.70;;;15.80;58.70;;;;;;5042712;28;20030;-79
2022/01/10 12:35:18;;;;;;;4.07;1.70;;;15.90;60.00;;;;;;5045869;28;20025;-79
2022/01/10 12:37:44;;;;;;;3.28;1.30;;;16.20;57.50;;;;;;5045153;28;20025;-79
2022/01/10 12:40:11;;;;;;;6.30;1.70;;;18.40;54.80;;;;;;5044526;28;20079;-80
2022/01/10 12:42:37;;;;;;;6.47;2.20;;;21.50;50.50;;;;;;5051188;28;20030;-80
2022/01/10 12:45:04;;;;;;;3.33;1.25;;;21.60;46.00;;;;;;5047521;28;20036;-80
2022/01/10 12:47:30;;;;;;;3.55;1.30;;;21.40;44.50;;;;;;5051396;28;20132;-80
2022/01/10 12:49:56;;;;;;;4.22;1.70;;;22.40;44.40;;;;;;5051945;28;20152;-78
2022/01/10 12:52:22;;;;;;;5.80;1.42;;;24.60;42.00;;;;;;5052739;28;20040;-77
2022/01/10 12:54:50;;;;;;;4.72;1.40;;;24.30;38.80;;;;;;5054201;28;20060;-76
2022/01/10 12:57:17;;;;;;;4.80;1.50;;;23.20;39.70;;;;;;5053559;28;20032;-77
2022/01/10 12:59:43;;;;;;;6.20;2.20;;;24.40;40.40;;;;;;5053880;28;20029;-76
2022/01/10 13:02:09;;;;;;;7.80;2.00;;;26.20;38.60;;;;;;5053877;28;20099;-78